Time;durP1;ratioP1;P1;durP2;ratioP2;P2;SDS_P1;SDS_P2;PMS_P1;PMS_P2;Temp;Humidity;BMP_temperature;BMP_pressure;BME280_temperature;BME280_humidity;BME280_pressure;Samples;Min_cycle;Max_cycle;Signal;HPM_P1;HPM_P2
2022/11/17 00:01:42;;;;;;;1999.90;999.90;;;6.10;99.90;;;;;;5024190;28;20483;-66
2022/11/17 00:04:08;;;;;;;1999.90;999.90;;;6.10;99.90;;;;;;5026853;28;20463;-66
2022/11/17 00:06:35;;;;;;;1999.90;999.90;;;6.10;99.90;;;;;;5023370;28;20459;-66
2022/11/17 00:09:02;;;;;;;1999.90;999.90;;;6.00;99.90;;;;;;5028906;28;20469;-66
2022/11/17 00:14:31;;;;;;;1999.90;999.90;;;6.10;99.90;;;;;;5025738;28;20498;-66
2022/11/17 00:14:31;;;;;;;1999.90;999.90;;;6.00;99.90;;;;;;5025947;28;20934;-65
2022/11/17 00:16:58;;;;;;;1999.90;999.90;;;6.00;99.90;;;;;;5030022;28;20455;-66
2022/11/17 00:22:09;;;;;;;1999.90;999.90;;;6.00;99.90;;;;;;5032015;28;20537;-66
2022/11/17 00:24:36;;;;;;;1999.90;999.90;;;6.20;99.90;;;;;;5027315;28;20472;-66
2022/11/17 00:27:04;;;;;;;1999.90;999.90;;;6.00;99.90;;;;;;5028910;28;20467;-66
2022/11/17 00:29:31;;;;;;;1999.90;999.90;;;5.90;99.90;;;;;;5030138;28;20459;-66
2022/11/17 00:34:42;;;;;;;1999.90;999.90;;;6.30;99.90;;;;;;5030556;28;20449;-66
2022/11/17 00:37:10;;;;;;;1999.90;999.90;;;5.90;99.90;;;;;;5032328;28;20456;-66
2022/11/17 00:39:37;;;;;;;1999.90;999.90;;;5.90;99.90;;;;;;5030670;28;21307;-66
2022/11/17 00:42:05;;;;;;;1999.90;999.90;;;5.90;99.90;;;;;;5028743;28;20491;-67
2022/11/17 00:44:32;;;;;;;1999.90;999.90;;;5.90;99.90;;;;;;5027273;28;20455;-66
2022/11/17 00:46:59;;;;;;;1999.90;999.90;;;6.00;99.90;;;;;;5031113;28;20486;-66
2022/11/17 00:49:26;;;;;;;1999.90;999.90;;;6.00;99.90;;;;;;5024510;28;20839;-66
2022/11/17 00:51:53;;;;;;;1999.90;999.90;;;5.90;99.90;;;;;;5028061;28;20483;-66
2022/11/17 00:54:19;;;;;;;1999.90;999.90;;;5.80;99.90;;;;;;5030221;28;20463;-67
2022/11/17 00:56:46;;;;;;;1999.90;999.90;;;5.80;99.90;;;;;;5028927;28;20466;-66
2022/11/17 00:59:15;;;;;;;1999.90;999.90;;;5.70;99.90;;;;;;5030547;28;20463;-66
2022/11/17 01:01:42;;;;;;;1999.90;999.90;;;6.00;99.90;;;;;;5030518;28;20490;-65
2022/11/17 01:04:09;;;;;;;1999.90;999.90;;;5.70;99.90;;;;;;5031372;28;20842;-66
2022/11/17 01:06:38;;;;;;;1999.90;999.90;;;5.80;99.90;;;;;;5029593;28;20474;-67
2022/11/17 01:09:09;;;;;;;1999.90;999.90;;;5.80;99.90;;;;;;5029062;28;20465;-66
2022/11/17 01:11:36;;;;;;;1999.90;999.90;;;5.70;99.90;;;;;;5028856;28;20483;-67
2022/11/17 01:14:03;;;;;;;1999.90;999.90;;;5.70;99.90;;;;;;5028832;28;20459;-66
2022/11/17 01:16:32;;;;;;;1999.90;999.90;;;5.90;99.90;;;;;;5029582;28;20912;-66
2022/11/17 01:19:01;;;;;;;1999.90;999.90;;;5.60;99.90;;;;;;5027818;28;20467;-66
2022/11/17 01:21:29;;;;;;;1999.90;999.90;;;5.60;99.90;;;;;;5027932;28;20479;-66
2022/11/17 01:23:58;;;;;;;1999.90;999.90;;;5.70;99.90;;;;;;5027540;28;20852;-66
2022/11/17 01:26:26;;;;;;;1999.90;999.90;;;5.60;99.90;;;;;;5028182;28;20463;-65
2022/11/17 01:28:53;;;;;;;1999.90;999.90;;;5.70;99.90;;;;;;5027506;28;20466;-66
2022/11/17 01:31:22;;;;;;;1999.90;999.90;;;5.60;99.90;;;;;;5029991;28;21026;-68
2022/11/17 01:33:51;;;;;;;1999.90;999.90;;;5.60;99.90;;;;;;5029650;28;20458;-69
2022/11/17 01:36:20;;;;;;;1999.90;999.90;;;5.60;99.90;;;;;;5029881;28;20463;-68
2022/11/17 01:38:47;;;;;;;1999.90;999.90;;;5.60;99.90;;;;;;5029097;28;20463;-67
2022/11/17 01:41:15;;;;;;;1999.90;999.90;;;5.50;99.90;;;;;;5029397;28;20487;-68
2022/11/17 01:43:45;;;;;;;1999.90;999.90;;;5.50;99.90;;;;;;5029394;28;20506;-68
2022/11/17 01:46:27;;;;;;;1999.90;999.90;;;5.50;99.90;;;;;;5029755;28;20474;-69
2022/11/17 01:49:00;;;;;;;1999.90;999.90;;;5.50;99.90;;;;;;5029754;28;20463;-68
2022/11/17 01:51:29;;;;;;;1999.90;999.90;;;5.50;99.90;;;;;;5026830;28;20490;-68
2022/11/17 01:53:56;;;;;;;1999.90;999.90;;;5.50;99.90;;;;;;5030026;28;20467;-66
2022/11/17 01:56:27;;;;;;;1999.90;999.90;;;5.50;99.90;;;;;;5027652;28;20475;-70
2022/11/17 01:58:59;;;;;;;1999.90;999.90;;;5.40;99.90;;;;;;5027965;28;21208;-68
2022/11/17 02:01:26;;;;;;;1999.90;999.90;;;5.40;99.90;;;;;;5026909;28;20483;-68
2022/11/17 02:03:54;;;;;;;1999.90;999.90;;;5.50;99.90;;;;;;5024925;28;20479;-68
2022/11/17 02:06:28;;;;;;;1999.90;999.90;;;5.40;99.90;;;;;;5029485;28;21063;-68
2022/11/17 02:08:56;;;;;;;1999.90;999.90;;;5.40;99.90;;;;;;5028724;28;20462;-68
2022/11/17 02:11:23;;;;;;;1999.90;999.90;;;5.30;99.90;;;;;;5029157;28;20562;-69
2022/11/17 02:13:54;;;;;;;1999.90;999.90;;;5.20;99.90;;;;;;5027622;28;20464;-68
2022/11/17 02:16:21;;;;;;;1999.90;999.90;;;5.20;99.90;;;;;;5025764;28;20460;-69
2022/11/17 02:18:48;;;;;;;1999.90;999.90;;;5.20;99.90;;;;;;5029029;28;20467;-68
2022/11/17 02:21:40;;;;;;;1999.90;999.90;;;5.20;99.90;;;;;;5028972;28;20489;-68
2022/11/17 02:24:45;;;;;;;1999.90;999.90;;;5.20;99.90;;;;;;5025521;28;20494;-68
2022/11/17 02:27:58;;;;;;;1999.90;999.90;;;5.10;99.90;;;;;;5026848;28;20463;-69
2022/11/17 02:30:30;;;;;;;1999.90;999.90;;;5.10;99.90;;;;;;5000390;28;20835;-70
2022/11/17 02:33:03;;;;;;;1999.90;999.90;;;5.10;99.90;;;;;;5028888;28;20529;-68
2022/11/17 02:35:37;;;;;;;1999.90;999.90;;;5.10;99.90;;;;;;5025098;28;20814;-68
2022/11/17 02:38:15;;;;;;;1999.90;999.90;;;5.20;99.90;;;;;;5025920;28;20462;-68
2022/11/17 02:40:47;;;;;;;1999.90;999.90;;;5.20;99.90;;;;;;5027646;28;20455;-68
2022/11/17 02:46:07;;;;;;;1999.90;999.90;;;5.10;99.90;;;;;;5025976;28;20485;-69
2022/11/17 02:48:37;;;;;;;1999.90;999.90;;;5.20;99.90;;;;;;5028034;28;20971;-68
2022/11/17 02:51:06;;;;;;;1999.90;999.90;;;5.20;99.90;;;;;;5025997;28;20483;-69
2022/11/17 02:53:35;;;;;;;1999.90;999.90;;;5.10;99.90;;;;;;5024345;28;20948;-68
2022/11/17 02:56:02;;;;;;;1999.90;999.90;;;5.10;99.90;;;;;;5027445;28;20837;-68
2022/11/17 02:58:29;;;;;;;1999.90;999.90;;;5.10;99.90;;;;;;5026624;28;20462;-67
2022/11/17 03:01:22;;;;;;;1999.90;999.90;;;5.10;99.90;;;;;;5027305;28;20470;-67
2022/11/17 03:04:04;;;;;;;1999.90;999.90;;;5.10;99.90;;;;;;5027929;28;20482;-68
2022/11/17 03:06:38;;;;;;;1999.90;999.90;;;5.10;99.90;;;;;;5024561;28;20470;-68
2022/11/17 03:09:14;;;;;;;1999.90;999.90;;;5.10;99.90;;;;;;5024591;28;20982;-69
2022/11/17 03:11:48;;;;;;;1999.90;999.90;;;5.10;99.90;;;;;;5028398;28;20482;-67
2022/11/17 03:14:20;;;;;;;1999.90;999.90;;;5.10;99.90;;;;;;5027079;28;20465;-68
2022/11/17 03:16:56;;;;;;;1999.90;999.90;;;5.10;99.90;;;;;;5026986;28;20565;-68
2022/11/17 03:19:28;;;;;;;1999.90;999.90;;;5.00;99.90;;;;;;5029207;28;20459;-68
2022/11/17 03:22:04;;;;;;;1999.90;999.90;;;5.10;99.90;;;;;;5028125;28;20479;-66
2022/11/17 03:24:33;;;;;;;1999.90;999.90;;;5.10;99.90;;;;;;5025081;28;20512;-68
2022/11/17 03:27:05;;;;;;;1999.90;999.90;;;5.10;99.90;;;;;;5028638;28;20464;-68
2022/11/17 03:29:35;;;;;;;1999.90;999.90;;;5.10;99.90;;;;;;5027862;28;20462;-67
2022/11/17 03:32:06;;;;;;;1999.90;999.90;;;5.10;99.90;;;;;;5028369;28;20494;-68
2022/11/17 03:34:37;;;;;;;1999.90;999.90;;;5.10;99.90;;;;;;5027241;28;20459;-68
2022/11/17 03:37:06;;;;;;;1999.90;999.90;;;5.10;99.90;;;;;;5023688;28;20456;-68
2022/11/17 03:39:36;;;;;;;1999.90;999.90;;;5.10;99.90;;;;;;5026926;28;20459;-68
2022/11/17 03:42:08;;;;;;;1999.90;999.90;;;5.00;99.90;;;;;;5027271;28;20489;-68
2022/11/17 03:44:38;;;;;;;1999.90;999.90;;;5.00;99.90;;;;;;5023629;28;20462;-68
2022/11/17 03:47:09;;;;;;;1999.90;999.90;;;5.00;99.90;;;;;;5022494;28;20475;-68
2022/11/17 03:49:40;;;;;;;1999.90;999.90;;;5.10;99.90;;;;;;5027108;28;20450;-68
2022/11/17 03:52:06;;;;;;;1999.90;999.90;;;5.10;99.90;;;;;;5032993;28;20482;-68
2022/11/17 03:54:34;;;;;;;1999.90;999.90;;;5.10;99.90;;;;;;5027231;28;20463;-67
2022/11/17 03:57:07;;;;;;;1999.90;999.90;;;5.10;99.90;;;;;;5025329;28;20463;-68
2022/11/17 03:59:42;;;;;;;1999.90;999.90;;;5.10;99.90;;;;;;5030891;28;20463;-68
2022/11/17 04:02:14;;;;;;;1999.90;999.90;;;5.10;99.90;;;;;;5030979;28;20832;-69
2022/11/17 04:07:26;;;;;;;1999.90;999.90;;;5.10;99.90;;;;;;5028685;28;20597;-69
2022/11/17 04:09:53;;;;;;;1999.90;999.90;;;5.00;99.90;;;;;;5031683;28;20477;-68
2022/11/17 04:17:50;;;;;;;1999.90;999.90;;;5.00;99.90;;;;;;5025932;28;20599;-68
2022/11/17 04:20:17;;;;;;;1999.90;999.90;;;5.00;99.90;;;;;;5032626;28;20466;-68
2022/11/17 04:22:43;;;;;;;1999.90;999.90;;;5.00;99.90;;;;;;5031505;28;20482;-69
2022/11/17 04:28:35;;;;;;;1999.90;999.90;;;5.00;99.90;;;;;;5029174;28;20467;-67
2022/11/17 04:30:42;;;;;;;1999.90;999.90;;;5.10;99.90;;;;;;5028342;28;20449;-67
2022/11/17 04:33:10;;;;;;;1999.90;999.90;;;5.10;99.90;;;;;;5032115;28;20475;-68
2022/11/17 04:35:36;;;;;;;1999.90;999.90;;;5.10;99.90;;;;;;5021265;28;20456;-67
2022/11/17 04:38:03;;;;;;;1999.90;999.90;;;5.10;99.90;;;;;;5022869;28;20486;-68
2022/11/17 04:41:52;;;;;;;1999.90;999.90;;;5.10;99.90;;;;;;5028514;28;20459;-69
2022/11/17 04:43:16;;;;;;;1999.90;999.90;;;5.10;99.90;;;;;;5029180;28;20477;-68
2022/11/17 04:45:42;;;;;;;1999.90;999.90;;;5.00;99.90;;;;;;5029545;28;20451;-67
2022/11/17 04:48:10;;;;;;;1999.90;999.90;;;5.20;99.90;;;;;;5032025;28;20204;-68
2022/11/17 04:50:37;;;;;;;1999.90;999.90;;;5.00;99.90;;;;;;5030768;28;20466;-67
2022/11/17 04:53:04;;;;;;;1999.90;999.90;;;5.20;99.90;;;;;;5029662;28;20486;-68
2022/11/17 04:55:32;;;;;;;1999.90;999.90;;;5.00;99.90;;;;;;5028906;28;20466;-69
2022/11/17 04:57:59;;;;;;;1999.90;999.90;;;5.00;99.90;;;;;;5030103;28;20459;-68
2022/11/17 05:00:25;;;;;;;1999.90;999.90;;;5.00;99.90;;;;;;5029580;28;20462;-67
2022/11/17 05:02:52;;;;;;;1999.90;999.90;;;5.00;99.90;;;;;;5030182;28;20491;-69
2022/11/17 05:05:20;;;;;;;1999.90;999.90;;;5.00;99.90;;;;;;5023070;28;20554;-68
2022/11/17 05:07:47;;;;;;;1999.90;999.90;;;4.90;99.90;;;;;;5026734;28;20464;-69
2022/11/17 05:10:14;;;;;;;1999.90;999.90;;;4.90;99.90;;;;;;5026953;28;20467;-68
2022/11/17 05:17:03;;;;;;;1999.90;999.90;;;4.90;99.90;;;;;;5012942;28;20525;-68
2022/11/17 05:18:07;;;;;;;1999.90;999.90;;;4.90;99.90;;;;;;5024992;28;21007;-68
2022/11/17 05:20:35;;;;;;;1999.90;999.90;;;4.90;99.90;;;;;;5030481;28;20534;-70
2022/11/17 05:25:46;;;;;;;1999.90;999.90;;;4.90;99.90;;;;;;5027670;28;20497;-67
2022/11/17 05:28:13;;;;;;;1999.90;999.90;;;4.80;99.90;;;;;;5024269;28;20466;-68
2022/11/17 05:30:39;;;;;;;1999.90;999.90;;;4.90;99.90;;;;;;5030518;28;20459;-68
2022/11/17 05:33:06;;;;;;;1999.90;999.90;;;4.90;99.90;;;;;;5030235;28;20475;-68
2022/11/17 05:35:34;;;;;;;1999.90;999.90;;;4.80;99.90;;;;;;5030027;28;20959;-67
2022/11/17 05:38:01;;;;;;;1999.90;999.90;;;4.80;99.90;;;;;;5024002;28;20993;-68
2022/11/17 05:40:28;;;;;;;1999.90;999.90;;;4.80;99.90;;;;;;5028938;28;20459;-69
2022/11/17 05:42:54;;;;;;;1999.90;999.90;;;4.70;99.90;;;;;;5029229;28;20526;-67
2022/11/17 05:45:21;;;;;;;1999.90;999.90;;;4.80;99.90;;;;;;5029931;28;20463;-68
2022/11/17 05:47:48;;;;;;;1999.90;999.90;;;4.80;99.90;;;;;;5030272;28;20459;-68
2022/11/17 05:50:15;;;;;;;1999.90;999.90;;;4.80;99.90;;;;;;5020361;28;20995;-68
2022/11/17 05:52:43;;;;;;;1999.90;999.90;;;4.80;99.90;;;;;;5029250;28;20479;-66
2022/11/17 05:55:09;;;;;;;1999.90;999.90;;;4.70;99.90;;;;;;5028622;28;20474;-68
2022/11/17 05:57:36;;;;;;;1999.90;999.90;;;4.70;99.90;;;;;;5029340;28;20987;-66
2022/11/17 06:00:04;;;;;;;1999.90;999.90;;;4.70;99.90;;;;;;5029822;28;20546;-65
2022/11/17 06:02:35;;;;;;;1999.90;999.90;;;4.70;99.90;;;;;;5030578;28;20486;-65
2022/11/17 06:05:02;;;;;;;1999.90;999.90;;;4.80;99.90;;;;;;5028957;28;20484;-65
2022/11/17 06:07:29;;;;;;;1999.90;999.90;;;4.70;99.90;;;;;;5028032;28;20467;-64
2022/11/17 06:09:57;;;;;;;1999.90;999.90;;;4.80;99.90;;;;;;5026521;28;20463;-66
2022/11/17 06:12:24;;;;;;;1999.90;999.90;;;4.80;99.90;;;;;;5028776;28;20475;-65
2022/11/17 06:14:51;;;;;;;1999.90;999.90;;;4.80;99.90;;;;;;5028511;28;20452;-69
2022/11/17 06:17:21;;;;;;;1999.90;999.90;;;4.80;99.90;;;;;;5024277;28;21008;-68
2022/11/17 06:19:53;;;;;;;1999.90;999.90;;;4.80;99.90;;;;;;5028431;28;20462;-65
2022/11/17 06:22:20;;;;;;;1999.90;999.90;;;4.80;99.90;;;;;;5029419;28;21006;-68
2022/11/17 06:24:47;;;;;;;1999.90;999.90;;;4.80;99.90;;;;;;5025121;28;20812;-67
2022/11/17 06:27:17;;;;;;;1999.90;999.90;;;4.80;99.90;;;;;;5026520;28;20544;-67
2022/11/17 06:29:45;;;;;;;1999.90;999.90;;;4.80;99.90;;;;;;5023091;28;20460;-66
2022/11/17 06:32:13;;;;;;;1999.90;999.90;;;4.70;99.90;;;;;;5027056;28;20911;-67
2022/11/17 06:34:40;;;;;;;1999.90;999.90;;;4.70;99.90;;;;;;5024051;28;20490;-68
2022/11/17 06:37:07;;;;;;;1999.90;999.90;;;4.70;99.90;;;;;;5024251;28;20474;-68
2022/11/17 06:39:34;;;;;;;1999.90;999.90;;;4.80;99.90;;;;;;5026987;28;20463;-68
2022/11/17 06:42:00;;;;;;;1999.90;999.90;;;4.80;99.90;;;;;;5027654;28;20494;-68
2022/11/17 06:44:28;;;;;;;1999.90;999.90;;;4.70;99.90;;;;;;5025928;28;20505;-68
2022/11/17 06:46:55;;;;;;;1999.90;999.90;;;4.70;99.90;;;;;;5022538;28;20444;-66
2022/11/17 06:49:22;;;;;;;1999.90;999.90;;;4.70;99.90;;;;;;5029888;28;20451;-68
2022/11/17 06:51:49;;;;;;;1999.90;999.90;;;4.70;99.90;;;;;;5016867;28;20844;-68
2022/11/17 06:54:15;;;;;;;1999.90;999.90;;;4.70;99.90;;;;;;5019896;28;20849;-68
2022/11/17 06:56:43;;;;;;;1999.90;999.90;;;4.70;99.90;;;;;;5027045;28;20842;-68
2022/11/17 06:59:10;;;;;;;1999.90;999.90;;;4.70;99.90;;;;;;5029562;28;20454;-68
2022/11/17 07:01:38;;;;;;;1999.90;999.90;;;4.70;99.90;;;;;;5027967;28;20857;-68
2022/11/17 07:04:06;;;;;;;1999.90;999.90;;;4.70;99.90;;;;;;5028134;28;20483;-68
2022/11/17 07:06:36;;;;;;;1999.90;999.90;;;4.70;99.90;;;;;;5026066;28;20475;-67
2022/11/17 07:09:03;;;;;;;1999.90;999.90;;;4.70;99.90;;;;;;5025009;28;20460;-69
2022/11/17 07:11:30;;;;;;;1999.90;999.90;;;4.70;99.90;;;;;;5021398;28;20479;-67
2022/11/17 07:13:57;;;;;;;1999.90;999.90;;;4.70;99.90;;;;;;5028572;28;20460;-67
2022/11/17 07:16:24;;;;;;;1999.90;999.90;;;4.70;99.90;;;;;;5022867;28;20450;-68
2022/11/17 07:18:52;;;;;;;1999.90;999.90;;;4.60;99.90;;;;;;5031144;28;20823;-67
2022/11/17 07:21:21;;;;;;;1999.90;999.90;;;4.60;99.90;;;;;;5026472;28;20490;-68
2022/11/17 07:23:47;;;;;;;1999.90;999.90;;;4.60;99.90;;;;;;5018816;28;20515;-67
2022/11/17 07:26:14;;;;;;;1999.90;999.90;;;4.60;99.90;;;;;;5031841;28;20850;-68
2022/11/17 07:28:41;;;;;;;1999.90;999.90;;;4.60;99.90;;;;;;5029751;28;21022;-69
2022/11/17 07:31:09;;;;;;;1999.90;999.90;;;4.50;99.90;;;;;;5030782;28;21004;-68
2022/11/17 07:33:36;;;;;;;1999.90;999.90;;;4.50;99.90;;;;;;5029665;28;20972;-68
2022/11/17 07:36:08;;;;;;;1999.90;999.90;;;4.50;99.90;;;;;;5029861;28;20467;-68
2022/11/17 07:38:35;;;;;;;1999.90;999.90;;;4.60;99.90;;;;;;5029752;28;20835;-69
2022/11/17 07:41:03;;;;;;;1999.90;999.90;;;4.60;99.90;;;;;;5026120;28;20463;-66
2022/11/17 07:43:30;;;;;;;1999.90;999.90;;;4.60;99.90;;;;;;5033183;28;20481;-67
2022/11/17 07:45:57;;;;;;;1999.90;999.90;;;4.60;99.90;;;;;;5028513;28;20481;-69
2022/11/17 07:48:24;;;;;;;1999.90;999.90;;;4.60;99.90;;;;;;5027482;28;20460;-67
2022/11/17 07:50:51;;;;;;;1999.90;999.90;;;4.60;99.90;;;;;;5028075;28;20471;-68
2022/11/17 07:53:19;;;;;;;1999.90;999.90;;;4.60;99.90;;;;;;5031058;28;20459;-68
2022/11/17 07:55:46;;;;;;;1999.90;999.90;;;4.60;99.90;;;;;;5021253;28;20475;-67
2022/11/17 07:58:12;;;;;;;1999.90;999.90;;;4.60;99.90;;;;;;5022025;28;20470;-68
2022/11/17 08:00:39;;;;;;;1999.90;999.90;;;4.60;99.90;;;;;;5032665;28;20455;-69
2022/11/17 08:03:06;;;;;;;1999.90;999.90;;;4.60;99.90;;;;;;5041994;28;20513;-67
2022/11/17 08:05:34;;;;;;;1999.90;999.90;;;4.60;99.90;;;;;;5035562;28;20478;-68
2022/11/17 08:08:01;;;;;;;1999.90;999.90;;;4.50;99.90;;;;;;5036420;28;20447;-69
2022/11/17 08:10:30;;;;;;;1999.90;999.90;;;4.60;99.90;;;;;;5036095;28;20449;-68
2022/11/17 08:12:58;;;;;;;1999.90;999.90;;;4.60;99.90;;;;;;5032408;28;20990;-68
2022/11/17 08:15:25;;;;;;;1999.90;999.90;;;4.60;99.90;;;;;;5027572;28;20458;-68
2022/11/17 08:17:53;;;;;;;1999.90;999.90;;;4.60;99.90;;;;;;5030345;28;21005;-68
2022/11/17 08:20:20;;;;;;;1999.90;999.90;;;4.60;99.90;;;;;;5031110;28;21206;-68
2022/11/17 08:22:47;;;;;;;1999.90;999.90;;;4.60;99.90;;;;;;5031497;28;20491;-67
2022/11/17 08:25:14;;;;;;;1999.90;999.90;;;4.60;99.90;;;;;;5030965;28;20498;-68
2022/11/17 08:27:42;;;;;;;1999.90;999.90;;;4.60;99.90;;;;;;5028685;28;20459;-69
2022/11/17 08:30:09;;;;;;;1999.90;999.90;;;4.60;99.90;;;;;;5023488;28;20846;-68
2022/11/17 08:32:36;;;;;;;1999.90;999.90;;;4.60;99.90;;;;;;5030639;28;20479;-66
2022/11/17 08:35:04;;;;;;;1999.90;999.90;;;4.60;99.90;;;;;;5030774;28;20470;-68
2022/11/17 08:37:31;;;;;;;1999.90;999.90;;;4.60;99.90;;;;;;5029770;28;20470;-68
2022/11/17 08:39:58;;;;;;;1999.90;999.90;;;4.60;99.90;;;;;;5025940;28;20459;-69
2022/11/17 08:42:24;;;;;;;1999.90;999.90;;;4.60;99.90;;;;;;5033989;28;20487;-69
2022/11/17 08:44:52;;;;;;;1999.90;999.90;;;4.60;99.90;;;;;;5033371;28;20483;-68
2022/11/17 08:47:19;;;;;;;1999.90;999.90;;;4.60;99.90;;;;;;5034298;28;20451;-68
2022/11/17 08:49:46;;;;;;;1999.90;999.90;;;4.60;99.90;;;;;;5034331;28;20443;-68
2022/11/17 08:52:13;;;;;;;1999.90;999.90;;;4.70;99.90;;;;;;5033878;28;20475;-68
2022/11/17 08:54:39;;;;;;;1999.90;999.90;;;5.00;99.90;;;;;;5033549;28;20516;-68
2022/11/17 08:57:06;;;;;;;1999.90;999.90;;;4.70;99.90;;;;;;5031723;28;20970;-68
2022/11/17 08:59:33;;;;;;;1999.90;999.90;;;4.70;99.90;;;;;;5033943;28;20451;-68
2022/11/17 09:02:01;;;;;;;1999.90;999.90;;;4.70;99.90;;;;;;5034180;28;20475;-66
2022/11/17 09:04:28;;;;;;;1999.90;999.90;;;4.70;99.90;;;;;;5033020;28;20490;-69
2022/11/17 09:06:54;;;;;;;1999.90;999.90;;;4.70;99.90;;;;;;5026953;28;20471;-68
2022/11/17 09:09:21;;;;;;;1999.90;999.90;;;4.80;99.90;;;;;;5030717;28;20830;-68
2022/11/17 09:11:48;;;;;;;1999.90;999.90;;;4.90;99.90;;;;;;5032430;28;20479;-68
2022/11/17 09:14:15;;;;;;;1999.90;999.90;;;4.80;99.90;;;;;;5033157;28;20955;-68
2022/11/17 09:16:41;;;;;;;1999.90;999.90;;;4.90;99.90;;;;;;5032981;28;20448;-68
2022/11/17 09:19:10;;;;;;;1999.90;999.90;;;4.80;99.90;;;;;;5033717;28;20625;-69
2022/11/17 09:21:37;;;;;;;1999.90;999.90;;;4.90;99.90;;;;;;5030887;28;20487;-68
2022/11/17 09:24:05;;;;;;;1999.90;999.90;;;4.90;99.90;;;;;;5028588;28;20860;-68
2022/11/17 09:26:31;;;;;;;1999.90;999.90;;;5.00;99.90;;;;;;5024559;28;20498;-68
2022/11/17 09:29:01;;;;;;;1999.90;999.90;;;4.90;99.90;;;;;;5023168;28;20486;-68
2022/11/17 09:31:28;;;;;;;1999.90;999.90;;;4.90;99.90;;;;;;5016172;28;20533;-68
2022/11/17 09:33:55;;;;;;;1999.90;999.90;;;4.90;99.90;;;;;;5022398;28;20460;-68
2022/11/17 09:36:23;;;;;;;1999.90;999.90;;;4.90;99.90;;;;;;5024229;28;20440;-67
2022/11/17 09:38:49;;;;;;;1999.90;999.90;;;4.90;99.90;;;;;;5011373;28;20455;-66
2022/11/17 09:41:26;;;;;;;1999.90;999.90;;;4.90;99.90;;;;;;5023954;28;20488;-68
2022/11/17 09:44:01;;;;;;;1999.90;999.90;;;4.90;99.90;;;;;;5029087;28;20485;-69
2022/11/17 09:46:42;;;;;;;1999.90;999.90;;;4.90;99.90;;;;;;5021099;28;20463;-68
2022/11/17 09:49:13;;;;;;;1999.90;999.90;;;4.90;99.90;;;;;;5014363;28;20447;-68
2022/11/17 09:51:45;;;;;;;1999.90;999.90;;;4.90;99.90;;;;;;5019284;28;20521;-68
2022/11/17 09:54:19;;;;;;;1999.90;999.90;;;5.00;99.90;;;;;;5019222;28;20436;-67
2022/11/17 09:56:47;;;;;;;1999.90;999.90;;;5.00;99.90;;;;;;5022977;28;20470;-68
2022/11/17 09:59:18;;;;;;;1999.90;999.90;;;4.90;99.90;;;;;;5025577;28;20498;-69
2022/11/17 10:01:44;;;;;;;1999.90;999.90;;;4.90;99.90;;;;;;5026381;28;20487;-68
2022/11/17 10:04:15;;;;;;;1999.90;999.90;;;4.90;99.90;;;;;;5026816;28;20492;-68
2022/11/17 10:06:47;;;;;;;1999.90;999.90;;;4.90;99.90;;;;;;5028244;28;20505;-68
2022/11/17 10:09:35;;;;;;;1999.90;999.90;;;4.90;99.90;;;;;;5130364;27;20585;-68
2022/11/17 10:12:15;;;;;;;1999.90;999.90;;;5.20;99.90;;;;;;5116482;28;20889;-68
2022/11/17 10:14:42;;;;;;;1999.90;999.90;;;4.90;99.90;;;;;;5103689;28;20462;-66
2022/11/17 10:17:11;;;;;;;1999.90;999.90;;;4.90;99.90;;;;;;5108523;28;20456;-69
2022/11/17 10:19:39;;;;;;;1999.90;999.90;;;4.90;99.90;;;;;;5109987;28;20524;-68
2022/11/17 10:22:28;;;;;;;1999.90;999.90;;;4.90;99.90;;;;;;5106735;28;20487;-68
2022/11/17 10:24:57;;;;;;;1999.90;999.90;;;4.90;99.90;;;;;;5106820;28;20490;-68
2022/11/17 10:27:26;;;;;;;1999.90;999.90;;;4.90;99.90;;;;;;5104575;28;20455;-69
2022/11/17 10:29:57;;;;;;;1999.90;999.90;;;4.90;99.90;;;;;;5106387;28;20463;-68
2022/11/17 10:32:25;;;;;;;1999.90;999.90;;;5.00;99.90;;;;;;5107007;28;20487;-68
2022/11/17 10:34:53;;;;;;;1999.90;999.90;;;5.00;99.90;;;;;;5106467;28;20456;-66
2022/11/17 10:37:30;;;;;;;1999.90;999.90;;;5.00;99.90;;;;;;5106408;28;20483;-68
2022/11/17 10:40:16;;;;;;;1999.90;999.90;;;5.00;99.90;;;;;;5107657;28;20451;-68
2022/11/17 10:42:53;;;;;;;1999.90;999.90;;;5.10;99.90;;;;;;5104945;28;20480;-68
2022/11/17 10:45:20;;;;;;;1999.90;999.90;;;5.10;99.90;;;;;;5108626;28;20474;-68
2022/11/17 10:47:47;;;;;;;1999.90;999.90;;;5.10;99.90;;;;;;5109060;28;20936;-68
2022/11/17 10:50:20;;;;;;;1999.90;999.90;;;5.10;99.90;;;;;;5112587;28;20985;-68
2022/11/17 10:52:47;;;;;;;1999.90;999.90;;;5.10;99.90;;;;;;5116361;28;20474;-68
2022/11/17 10:55:26;;;;;;;1999.90;999.90;;;5.20;99.90;;;;;;5106609;28;20462;-68
2022/11/17 10:57:56;;;;;;;1999.90;999.90;;;5.10;99.90;;;;;;5108290;28;20483;-67
2022/11/17 11:00:25;;;;;;;1999.90;999.90;;;5.20;99.90;;;;;;5108412;28;20455;-68
2022/11/17 11:03:04;;;;;;;1999.90;999.90;;;5.20;99.90;;;;;;5104762;28;20490;-68
2022/11/17 11:05:31;;;;;;;1999.90;999.90;;;5.20;99.90;;;;;;5112796;28;20465;-69
2022/11/17 11:08:15;;;;;;;1999.90;999.90;;;5.20;99.90;;;;;;5111376;27;20456;-69
2022/11/17 11:10:48;;;;;;;1999.90;999.90;;;5.20;99.90;;;;;;5105635;28;20459;-67
2022/11/17 11:13:22;;;;;;;1999.90;999.90;;;5.20;99.90;;;;;;5105516;28;20466;-69
2022/11/17 11:15:49;;;;;;;1999.90;999.90;;;5.30;99.90;;;;;;5105991;28;20983;-69
2022/11/17 11:18:18;;;;;;;1999.90;999.90;;;5.30;99.90;;;;;;5108163;28;21014;-68
2022/11/17 11:20:53;;;;;;;1999.90;999.90;;;5.30;99.90;;;;;;5093699;28;20849;-69
2022/11/17 11:23:30;;;;;;;1999.90;999.90;;;5.30;99.90;;;;;;5091580;28;20463;-69
2022/11/17 11:26:12;;;;;;;1999.90;999.90;;;5.30;99.90;;;;;;5092395;28;20998;-69
2022/11/17 11:28:49;;;;;;;1999.90;999.90;;;5.30;99.90;;;;;;5091443;28;20455;-68
2022/11/17 11:31:24;;;;;;;1999.90;999.90;;;5.30;99.90;;;;;;5086390;28;20480;-68
2022/11/17 11:33:58;;;;;;;1999.90;999.90;;;5.40;99.90;;;;;;5091571;28;20456;-69
2022/11/17 11:36:35;;;;;;;1999.90;999.90;;;5.40;99.90;;;;;;5090387;28;20459;-68
2022/11/17 11:39:12;;;;;;;1999.90;999.90;;;5.40;99.90;;;;;;5091193;28;20476;-67
2022/11/17 11:42:01;;;;;;;1999.90;999.90;;;5.40;99.90;;;;;;5090936;28;20468;-68
2022/11/17 11:44:41;;;;;;;1999.90;999.90;;;5.50;99.90;;;;;;5086066;28;20456;-67
2022/11/17 11:47:20;;;;;;;1999.90;999.90;;;5.50;99.90;;;;;;5091592;28;20970;-67
2022/11/17 11:49:52;;;;;;;1999.90;999.90;;;5.50;99.90;;;;;;5091706;28;20460;-66
2022/11/17 11:52:21;;;;;;;1999.90;999.90;;;5.60;99.90;;;;;;5089340;28;20483;-66
2022/11/17 11:54:54;;;;;;;1999.90;999.90;;;5.60;99.90;;;;;;5089995;28;20829;-66
2022/11/17 11:57:28;;;;;;;1999.90;999.90;;;5.30;99.90;;;;;;5091472;28;20456;-65
2022/11/17 11:59:59;;;;;;;1999.90;999.90;;;5.60;99.90;;;;;;5092067;28;20443;-66
2022/11/17 12:02:34;;;;;;;1999.90;999.90;;;5.60;99.90;;;;;;5092633;28;20461;-69
2022/11/17 12:05:15;;;;;;;1999.90;999.90;;;5.90;99.90;;;;;;5092108;28;20474;-68
2022/11/17 12:07:48;;;;;;;1999.90;999.90;;;5.60;99.90;;;;;;5090210;28;20499;-65
2022/11/17 12:10:21;;;;;;;1999.90;999.90;;;5.50;99.90;;;;;;5090007;28;20456;-65
2022/11/17 12:12:50;;;;;;;1999.90;999.90;;;5.50;99.90;;;;;;5091124;28;20480;-66
2022/11/17 12:15:35;;;;;;;1999.90;999.90;;;5.60;99.90;;;;;;5087684;28;20460;-66
2022/11/17 12:18:11;;;;;;;1999.90;999.90;;;5.60;99.90;;;;;;5089666;28;20476;-66
2022/11/17 12:20:52;;;;;;;1999.90;999.90;;;5.70;99.90;;;;;;5093335;28;20989;-66
2022/11/17 12:23:28;;;;;;;1999.90;999.90;;;5.60;99.90;;;;;;5093200;28;20457;-65
2022/11/17 12:25:57;;;;;;;1999.90;999.90;;;5.70;99.90;;;;;;5093653;28;20470;-66
2022/11/17 12:28:34;;;;;;;1999.90;999.90;;;5.70;99.90;;;;;;5089026;28;20448;-66
2022/11/17 12:31:02;;;;;;;1999.90;999.90;;;5.70;99.90;;;;;;5087632;28;20455;-66
2022/11/17 12:34:06;;;;;;;1999.90;999.90;;;5.70;99.90;;;;;;5088951;28;21145;-66
2022/11/17 12:36:34;;;;;;;1999.90;999.90;;;5.70;99.90;;;;;;5087594;28;20539;-65
2022/11/17 12:39:02;;;;;;;1999.90;999.90;;;5.70;99.90;;;;;;5088852;28;20483;-66
2022/11/17 12:42:03;;;;;;;1999.90;999.90;;;5.70;99.90;;;;;;5091735;28;20477;-66
2022/11/17 12:44:57;;;;;;;1999.90;999.90;;;5.80;99.90;;;;;;5083525;28;20850;-67
2022/11/17 12:47:26;;;;;;;1999.90;999.90;;;5.80;99.90;;;;;;5086364;28;20466;-66
2022/11/17 12:50:08;;;;;;;1999.90;999.90;;;5.80;99.90;;;;;;5088473;28;20448;-66